sensor_id;sensor_type;location;lat;lon;timestamp;temperature;humidity
51739;DHT22;37815;52.692;6.226;2024-01-07T00:01:30;6.40;99.90
51739;DHT22;37815;52.692;6.226;2024-01-07T00:06:31;6.40;99.90
51739;DHT22;37815;52.692;6.226;2024-01-07T00:11:31;6.40;99.90
51739;DHT22;37815;52.692;6.226;2024-01-07T00:16:32;6.40;99.90
51739;DHT22;37815;52.692;6.226;2024-01-07T00:21:34;6.30;99.90
51739;DHT22;37815;52.692;6.226;2024-01-07T00:26:35;6.30;99.90
51739;DHT22;37815;52.692;6.226;2024-01-07T00:31:35;6.30;99.90
51739;DHT22;37815;52.692;6.226;2024-01-07T00:36:36;6.30;99.90
51739;DHT22;37815;52.692;6.226;2024-01-07T00:41:36;6.30;99.90
51739;DHT22;37815;52.692;6.226;2024-01-07T00:46:37;6.30;99.90
51739;DHT22;37815;52.692;6.226;2024-01-07T00:51:38;6.30;99.90
51739;DHT22;37815;52.692;6.226;2024-01-07T00:56:39;6.30;99.90
51739;DHT22;37815;52.692;6.226;2024-01-07T01:01:39;6.30;99.90
51739;DHT22;37815;52.692;6.226;2024-01-07T01:06:40;6.30;99.90
51739;DHT22;37815;52.692;6.226;2024-01-07T01:11:40;6.30;99.90
51739;DHT22;37815;52.692;6.226;2024-01-07T01:16:41;6.30;99.90
51739;DHT22;37815;52.692;6.226;2024-01-07T01:21:41;6.30;99.90
51739;DHT22;37815;52.692;6.226;2024-01-07T01:26:42;6.30;99.90
51739;DHT22;37815;52.692;6.226;2024-01-07T01:31:43;6.30;99.90
51739;DHT22;37815;52.692;6.226;2024-01-07T01:36:43;6.30;99.90
51739;DHT22;37815;52.692;6.226;2024-01-07T01:41:44;6.30;99.90
51739;DHT22;37815;52.692;6.226;2024-01-07T01:46:45;6.30;99.90
51739;DHT22;37815;52.692;6.226;2024-01-07T01:51:47;6.30;99.90
51739;DHT22;37815;52.692;6.226;2024-01-07T01:56:48;6.30;99.90
51739;DHT22;37815;52.692;6.226;2024-01-07T02:01:49;6.20;99.90
51739;DHT22;37815;52.692;6.226;2024-01-07T02:06:49;6.30;99.90
51739;DHT22;37815;52.692;6.226;2024-01-07T02:12:03;6.20;99.90
51739;DHT22;37815;52.692;6.226;2024-01-07T02:17:04;6.20;99.90
51739;DHT22;37815;52.692;6.226;2024-01-07T02:22:05;6.20;99.90
51739;DHT22;37815;52.692;6.226;2024-01-07T02:27:06;6.20;99.90
51739;DHT22;37815;52.692;6.226;2024-01-07T02:32:06;6.20;99.90
51739;DHT22;37815;52.692;6.226;2024-01-07T02:37:07;6.20;99.90
51739;DHT22;37815;52.692;6.226;2024-01-07T02:42:07;6.20;99.90
51739;DHT22;37815;52.692;6.226;2024-01-07T02:47:08;6.20;99.90
51739;DHT22;37815;52.692;6.226;2024-01-07T02:52:09;6.20;99.90
51739;DHT22;37815;52.692;6.226;2024-01-07T02:57:09;6.20;99.90
51739;DHT22;37815;52.692;6.226;2024-01-07T03:02:10;6.20;99.90
51739;DHT22;37815;52.692;6.226;2024-01-07T03:07:11;6.50;99.90
51739;DHT22;37815;52.692;6.226;2024-01-07T03:12:11;6.20;99.90
51739;DHT22;37815;52.692;6.226;2024-01-07T03:17:12;6.20;99.90
51739;DHT22;37815;52.692;6.226;2024-01-07T03:22:12;6.20;99.90
51739;DHT22;37815;52.692;6.226;2024-01-07T03:27:13;6.10;99.90
51739;DHT22;37815;52.692;6.226;2024-01-07T03:32:14;6.10;99.90
51739;DHT22;37815;52.692;6.226;2024-01-07T03:37:14;6.10;99.90
51739;DHT22;37815;52.692;6.226;2024-01-07T03:42:16;6.10;99.90
51739;DHT22;37815;52.692;6.226;2024-01-07T03:47:17;6.10;99.90
51739;DHT22;37815;52.692;6.226;2024-01-07T03:52:17;6.10;99.90
51739;DHT22;37815;52.692;6.226;2024-01-07T03:57:18;6.10;99.90
51739;DHT22;37815;52.692;6.226;2024-01-07T04:02:19;6.10;99.90
51739;DHT22;37815;52.692;6.226;2024-01-07T04:07:19;6.10;99.90
51739;DHT22;37815;52.692;6.226;2024-01-07T04:12:20;6.10;99.90
51739;DHT22;37815;52.692;6.226;2024-01-07T04:17:20;6.10;99.90
51739;DHT22;37815;52.692;6.226;2024-01-07T04:22:21;6.10;99.90
51739;DHT22;37815;52.692;6.226;2024-01-07T04:27:22;6.10;99.90
51739;DHT22;37815;52.692;6.226;2024-01-07T04:32:22;6.10;99.90
51739;DHT22;37815;52.692;6.226;2024-01-07T04:37:24;6.10;99.90
51739;DHT22;37815;52.692;6.226;2024-01-07T04:42:24;6.10;99.90
51739;DHT22;37815;52.692;6.226;2024-01-07T04:47:29;6.10;99.90
51739;DHT22;37815;52.692;6.226;2024-01-07T04:52:30;6.10;99.90
51739;DHT22;37815;52.692;6.226;2024-01-07T04:57:31;6.10;99.90
51739;DHT22;37815;52.692;6.226;2024-01-07T05:02:31;6.00;99.90
51739;DHT22;37815;52.692;6.226;2024-01-07T05:07:32;6.10;99.90
51739;DHT22;37815;52.692;6.226;2024-01-07T05:12:33;6.00;99.90
51739;DHT22;37815;52.692;6.226;2024-01-07T05:17:33;6.00;99.90
51739;DHT22;37815;52.692;6.226;2024-01-07T05:22:34;6.00;99.90
51739;DHT22;37815;52.692;6.226;2024-01-07T05:27:34;6.00;99.90
51739;DHT22;37815;52.692;6.226;2024-01-07T05:32:35;6.00;99.90
51739;DHT22;37815;52.692;6.226;2024-01-07T05:37:36;6.00;99.90
51739;DHT22;37815;52.692;6.226;2024-01-07T05:42:36;6.00;99.90
51739;DHT22;37815;52.692;6.226;2024-01-07T05:47:37;6.00;99.90
51739;DHT22;37815;52.692;6.226;2024-01-07T05:52:37;6.00;99.90
51739;DHT22;37815;52.692;6.226;2024-01-07T05:57:38;6.00;99.90
51739;DHT22;37815;52.692;6.226;2024-01-07T06:02:39;6.00;99.90
51739;DHT22;37815;52.692;6.226;2024-01-07T06:07:40;5.90;99.90
51739;DHT22;37815;52.692;6.226;2024-01-07T06:12:40;5.90;99.90
51739;DHT22;37815;52.692;6.226;2024-01-07T06:17:41;5.90;99.90
51739;DHT22;37815;52.692;6.226;2024-01-07T06:22:42;5.90;99.90
51739;DHT22;37815;52.692;6.226;2024-01-07T06:27:43;5.90;99.90
51739;DHT22;37815;52.692;6.226;2024-01-07T06:32:43;5.90;99.90
51739;DHT22;37815;52.692;6.226;2024-01-07T06:37:44;5.90;99.90
51739;DHT22;37815;52.692;6.226;2024-01-07T06:42:45;5.90;99.90
51739;DHT22;37815;52.692;6.226;2024-01-07T06:47:48;5.90;99.90
51739;DHT22;37815;52.692;6.226;2024-01-07T06:52:48;5.80;99.90
51739;DHT22;37815;52.692;6.226;2024-01-07T06:57:49;5.80;99.90
51739;DHT22;37815;52.692;6.226;2024-01-07T07:02:50;5.80;99.90
51739;DHT22;37815;52.692;6.226;2024-01-07T07:07:51;5.80;99.90
51739;DHT22;37815;52.692;6.226;2024-01-07T07:12:51;5.80;99.90
51739;DHT22;37815;52.692;6.226;2024-01-07T07:17:52;5.80;99.90
51739;DHT22;37815;52.692;6.226;2024-01-07T07:22:52;5.80;99.90
51739;DHT22;37815;52.692;6.226;2024-01-07T07:27:53;5.80;99.90
51739;DHT22;37815;52.692;6.226;2024-01-07T07:32:54;5.80;99.90
51739;DHT22;37815;52.692;6.226;2024-01-07T07:37:56;5.80;99.90
51739;DHT22;37815;52.692;6.226;2024-01-07T07:42:56;5.80;99.90
51739;DHT22;37815;52.692;6.226;2024-01-07T07:47:57;5.70;99.90
51739;DHT22;37815;52.692;6.226;2024-01-07T07:52:57;5.70;99.90
51739;DHT22;37815;52.692;6.226;2024-01-07T07:57:58;5.70;99.90
51739;DHT22;37815;52.692;6.226;2024-01-07T08:02:59;5.70;99.90
51739;DHT22;37815;52.692;6.226;2024-01-07T08:07:59;5.70;99.90
51739;DHT22;37815;52.692;6.226;2024-01-07T08:13:00;5.70;99.90
51739;DHT22;37815;52.692;6.226;2024-01-07T08:18:01;5.70;99.90
51739;DHT22;37815;52.692;6.226;2024-01-07T08:23:03;5.70;99.90
51739;DHT22;37815;52.692;6.226;2024-01-07T08:28:03;5.70;99.90
51739;DHT22;37815;52.692;6.226;2024-01-07T08:33:04;5.70;99.90
51739;DHT22;37815;52.692;6.226;2024-01-07T08:38:04;5.70;99.90
51739;DHT22;37815;52.692;6.226;2024-01-07T08:43:05;5.70;99.80
51739;DHT22;37815;52.692;6.226;2024-01-07T08:48:06;5.70;99.80
51739;DHT22;37815;52.692;6.226;2024-01-07T08:53:07;5.70;99.80
51739;DHT22;37815;52.692;6.226;2024-01-07T08:58:07;5.60;99.80
51739;DHT22;37815;52.692;6.226;2024-01-07T09:03:08;5.60;99.70
51739;DHT22;37815;52.692;6.226;2024-01-07T09:08:09;5.60;99.70
51739;DHT22;37815;52.692;6.226;2024-01-07T09:13:11;5.60;99.70
51739;DHT22;37815;52.692;6.226;2024-01-07T09:18:12;5.60;99.70
51739;DHT22;37815;52.692;6.226;2024-01-07T09:23:12;6.80;99.90
51739;DHT22;37815;52.692;6.226;2024-01-07T09:28:13;5.60;99.60
51739;DHT22;37815;52.692;6.226;2024-01-07T09:33:13;5.60;99.60
51739;DHT22;37815;52.692;6.226;2024-01-07T09:38:15;5.60;99.60
51739;DHT22;37815;52.692;6.226;2024-01-07T09:43:17;5.60;99.60
51739;DHT22;37815;52.692;6.226;2024-01-07T09:48:17;5.60;99.60
51739;DHT22;37815;52.692;6.226;2024-01-07T09:53:20;5.60;99.60
51739;DHT22;37815;52.692;6.226;2024-01-07T09:58:21;5.60;99.60
51739;DHT22;37815;52.692;6.226;2024-01-07T10:03:21;5.70;99.60
51739;DHT22;37815;52.692;6.226;2024-01-07T10:08:22;5.70;99.50
51739;DHT22;37815;52.692;6.226;2024-01-07T10:13:22;5.70;99.40
51739;DHT22;37815;52.692;6.226;2024-01-07T10:18:24;5.80;99.30
51739;DHT22;37815;52.692;6.226;2024-01-07T10:23:25;5.90;99.10
51739;DHT22;37815;52.692;6.226;2024-01-07T10:28:27;6.10;99.00
51739;DHT22;37815;52.692;6.226;2024-01-07T10:33:31;6.20;98.90
51739;DHT22;37815;52.692;6.226;2024-01-07T10:38:32;6.20;98.80
51739;DHT22;37815;52.692;6.226;2024-01-07T10:43:36;6.30;98.70
51739;DHT22;37815;52.692;6.226;2024-01-07T10:49:04;6.40;98.70
51739;DHT22;37815;52.692;6.226;2024-01-07T10:54:05;6.50;98.50
51739;DHT22;37815;52.692;6.226;2024-01-07T10:59:08;6.50;98.50
51739;DHT22;37815;52.692;6.226;2024-01-07T11:04:45;6.50;98.50
51739;DHT22;37815;52.692;6.226;2024-01-07T11:10:20;6.50;98.60
51739;DHT22;37815;52.692;6.226;2024-01-07T11:20:50;6.40;98.80
51739;DHT22;37815;52.692;6.226;2024-01-07T11:25:50;6.30;99.00
51739;DHT22;37815;52.692;6.226;2024-01-07T11:30:54;6.30;99.10
51739;DHT22;37815;52.692;6.226;2024-01-07T11:35:59;6.30;99.10
51739;DHT22;37815;52.692;6.226;2024-01-07T11:41:03;6.30;99.20
51739;DHT22;37815;52.692;6.226;2024-01-07T11:46:05;6.30;99.00
51739;DHT22;37815;52.692;6.226;2024-01-07T11:51:06;6.30;99.00
51739;DHT22;37815;52.692;6.226;2024-01-07T11:56:08;6.30;99.10
51739;DHT22;37815;52.692;6.226;2024-01-07T12:01:09;6.30;99.20
51739;DHT22;37815;52.692;6.226;2024-01-07T12:06:10;6.30;99.10
51739;DHT22;37815;52.692;6.226;2024-01-07T12:11:14;6.20;99.10
51739;DHT22;37815;52.692;6.226;2024-01-07T12:16:16;6.20;99.20
51739;DHT22;37815;52.692;6.226;2024-01-07T12:21:20;6.20;99.20
51739;DHT22;37815;52.692;6.226;2024-01-07T12:26:28;6.20;99.20
51739;DHT22;37815;52.692;6.226;2024-01-07T12:31:31;6.20;99.20
51739;DHT22;37815;52.692;6.226;2024-01-07T12:36:33;6.20;99.20
51739;DHT22;37815;52.692;6.226;2024-01-07T12:41:34;6.10;99.10
51739;DHT22;37815;52.692;6.226;2024-01-07T12:46:35;6.20;99.00
51739;DHT22;37815;52.692;6.226;2024-01-07T12:51:35;6.20;98.80
51739;DHT22;37815;52.692;6.226;2024-01-07T12:56:36;6.20;98.80
51739;DHT22;37815;52.692;6.226;2024-01-07T13:01:36;6.30;98.90
51739;DHT22;37815;52.692;6.226;2024-01-07T13:06:37;6.30;98.80
51739;DHT22;37815;52.692;6.226;2024-01-07T13:11:38;6.30;98.90
51739;DHT22;37815;52.692;6.226;2024-01-07T13:16:38;6.20;98.90
51739;DHT22;37815;52.692;6.226;2024-01-07T13:21:39;6.20;98.90
51739;DHT22;37815;52.692;6.226;2024-01-07T13:26:40;6.30;98.90
51739;DHT22;37815;52.692;6.226;2024-01-07T13:31:42;6.30;98.80
51739;DHT22;37815;52.692;6.226;2024-01-07T13:36:43;6.30;98.90
51739;DHT22;37815;52.692;6.226;2024-01-07T13:41:44;6.20;98.90
51739;DHT22;37815;52.692;6.226;2024-01-07T13:46:45;6.20;98.90
51739;DHT22;37815;52.692;6.226;2024-01-07T13:51:52;6.20;98.90
51739;DHT22;37815;52.692;6.226;2024-01-07T13:56:52;6.20;99.00
51739;DHT22;37815;52.692;6.226;2024-01-07T14:01:54;6.10;98.90
51739;DHT22;37815;52.692;6.226;2024-01-07T14:06:55;6.10;99.00
51739;DHT22;37815;52.692;6.226;2024-01-07T14:11:57;6.10;99.00
51739;DHT22;37815;52.692;6.226;2024-01-07T14:16:57;6.10;99.00
51739;DHT22;37815;52.692;6.226;2024-01-07T14:21:59;6.10;98.90
51739;DHT22;37815;52.692;6.226;2024-01-07T14:26:59;6.10;98.90
51739;DHT22;37815;52.692;6.226;2024-01-07T14:32:00;6.10;98.90
51739;DHT22;37815;52.692;6.226;2024-01-07T14:37:03;6.10;98.90
51739;DHT22;37815;52.692;6.226;2024-01-07T14:42:03;6.10;99.00
51739;DHT22;37815;52.692;6.226;2024-01-07T14:47:04;6.00;99.00
51739;DHT22;37815;52.692;6.226;2024-01-07T14:52:05;6.00;99.00
51739;DHT22;37815;52.692;6.226;2024-01-07T14:57:05;6.00;99.00
51739;DHT22;37815;52.692;6.226;2024-01-07T15:02:08;6.00;99.00
51739;DHT22;37815;52.692;6.226;2024-01-07T15:07:10;6.00;99.00
51739;DHT22;37815;52.692;6.226;2024-01-07T15:12:12;6.00;99.00
51739;DHT22;37815;52.692;6.226;2024-01-07T15:17:13;6.00;99.00
51739;DHT22;37815;52.692;6.226;2024-01-07T15:22:13;6.00;98.90
51739;DHT22;37815;52.692;6.226;2024-01-07T15:27:14;5.90;98.90
51739;DHT22;37815;52.692;6.226;2024-01-07T15:32:14;5.90;98.90
51739;DHT22;37815;52.692;6.226;2024-01-07T15:37:17;6.30;99.10
51739;DHT22;37815;52.692;6.226;2024-01-07T15:42:22;5.90;99.00
51739;DHT22;37815;52.692;6.226;2024-01-07T15:47:23;4.90;98.80
51739;DHT22;37815;52.692;6.226;2024-01-07T15:52:24;5.80;99.00
51739;DHT22;37815;52.692;6.226;2024-01-07T15:57:24;5.80;99.00
51739;DHT22;37815;52.692;6.226;2024-01-07T16:02:25;5.80;99.10
51739;DHT22;37815;52.692;6.226;2024-01-07T16:07:25;5.80;99.10
51739;DHT22;37815;52.692;6.226;2024-01-07T16:12:26;5.80;99.20
51739;DHT22;37815;52.692;6.226;2024-01-07T16:17:30;5.70;99.20
51739;DHT22;37815;52.692;6.226;2024-01-07T16:22:31;5.10;99.10
51739;DHT22;37815;52.692;6.226;2024-01-07T16:27:32;5.80;99.30
51739;DHT22;37815;52.692;6.226;2024-01-07T16:32:32;5.70;99.30
51739;DHT22;37815;52.692;6.226;2024-01-07T16:37:33;5.80;99.30
51739;DHT22;37815;52.692;6.226;2024-01-07T16:42:34;5.80;99.30
51739;DHT22;37815;52.692;6.226;2024-01-07T16:47:35;5.80;99.30
51739;DHT22;37815;52.692;6.226;2024-01-07T16:52:35;5.70;99.20
51739;DHT22;37815;52.692;6.226;2024-01-07T16:57:36;5.60;99.20
51739;DHT22;37815;52.692;6.226;2024-01-07T17:02:38;5.60;99.30
51739;DHT22;37815;52.692;6.226;2024-01-07T17:07:38;5.60;99.00
51739;DHT22;37815;52.692;6.226;2024-01-07T17:12:39;5.60;99.00
51739;DHT22;37815;52.692;6.226;2024-01-07T17:17:40;5.50;98.80
51739;DHT22;37815;52.692;6.226;2024-01-07T17:22:41;5.50;98.80
51739;DHT22;37815;52.692;6.226;2024-01-07T17:27:41;5.50;98.80
51739;DHT22;37815;52.692;6.226;2024-01-07T17:32:43;5.40;98.70
51739;DHT22;37815;52.692;6.226;2024-01-07T17:37:43;5.40;98.70
51739;DHT22;37815;52.692;6.226;2024-01-07T17:42:44;5.30;98.60
51739;DHT22;37815;52.692;6.226;2024-01-07T17:47:45;5.30;98.60
51739;DHT22;37815;52.692;6.226;2024-01-07T17:52:45;5.40;98.70
51739;DHT22;37815;52.692;6.226;2024-01-07T17:57:46;5.40;98.70
51739;DHT22;37815;52.692;6.226;2024-01-07T18:02:47;5.40;98.60
51739;DHT22;37815;52.692;6.226;2024-01-07T18:07:48;5.40;98.70
51739;DHT22;37815;52.692;6.226;2024-01-07T18:12:49;5.40;98.70
51739;DHT22;37815;52.692;6.226;2024-01-07T18:17:50;5.40;98.80
51739;DHT22;37815;52.692;6.226;2024-01-07T18:22:51;5.40;98.80
51739;DHT22;37815;52.692;6.226;2024-01-07T18:27:52;5.40;98.80
51739;DHT22;37815;52.692;6.226;2024-01-07T18:32:52;5.40;98.80
51739;DHT22;37815;52.692;6.226;2024-01-07T18:37:53;5.40;98.80
51739;DHT22;37815;52.692;6.226;2024-01-07T18:42:53;5.60;99.10
51739;DHT22;37815;52.692;6.226;2024-01-07T18:47:54;5.60;98.70
51739;DHT22;37815;52.692;6.226;2024-01-07T18:52:55;5.50;98.70
51739;DHT22;37815;52.692;6.226;2024-01-07T18:57:55;5.50;98.70
51739;DHT22;37815;52.692;6.226;2024-01-07T19:02:56;5.50;98.70
51739;DHT22;37815;52.692;6.226;2024-01-07T19:07:57;5.40;98.70
51739;DHT22;37815;52.692;6.226;2024-01-07T19:12:58;5.40;98.70
51739;DHT22;37815;52.692;6.226;2024-01-07T19:17:58;6.30;99.00
51739;DHT22;37815;52.692;6.226;2024-01-07T19:23:00;5.40;98.80
51739;DHT22;37815;52.692;6.226;2024-01-07T19:28:01;5.30;98.80
51739;DHT22;37815;52.692;6.226;2024-01-07T19:33:02;5.30;98.80
51739;DHT22;37815;52.692;6.226;2024-01-07T19:38:03;5.30;98.80
51739;DHT22;37815;52.692;6.226;2024-01-07T19:43:04;5.30;98.80
51739;DHT22;37815;52.692;6.226;2024-01-07T19:48:04;5.30;98.80
51739;DHT22;37815;52.692;6.226;2024-01-07T19:53:05;5.00;98.70
51739;DHT22;37815;52.692;6.226;2024-01-07T19:58:06;5.20;98.70
51739;DHT22;37815;52.692;6.226;2024-01-07T20:03:06;5.20;98.70
51739;DHT22;37815;52.692;6.226;2024-01-07T20:08:07;5.20;98.60
51739;DHT22;37815;52.692;6.226;2024-01-07T20:13:08;5.20;98.60
51739;DHT22;37815;52.692;6.226;2024-01-07T20:18:09;5.20;98.60
51739;DHT22;37815;52.692;6.226;2024-01-07T20:23:09;5.20;98.60
51739;DHT22;37815;52.692;6.226;2024-01-07T20:28:10;5.30;98.60
51739;DHT22;37815;52.692;6.226;2024-01-07T20:33:11;5.20;98.50
51739;DHT22;37815;52.692;6.226;2024-01-07T20:38:14;5.20;98.50
51739;DHT22;37815;52.692;6.226;2024-01-07T20:43:15;5.20;98.50
51739;DHT22;37815;52.692;6.226;2024-01-07T20:48:16;5.20;98.50
51739;DHT22;37815;52.692;6.226;2024-01-07T20:53:16;5.10;98.40
51739;DHT22;37815;52.692;6.226;2024-01-07T20:58:19;5.20;98.40
51739;DHT22;37815;52.692;6.226;2024-01-07T21:03:20;5.10;98.40
51739;DHT22;37815;52.692;6.226;2024-01-07T21:08:20;5.10;98.30
51739;DHT22;37815;52.692;6.226;2024-01-07T21:13:21;5.10;98.40
51739;DHT22;37815;52.692;6.226;2024-01-07T21:18:22;5.10;98.30
51739;DHT22;37815;52.692;6.226;2024-01-07T21:23:22;5.10;98.30
51739;DHT22;37815;52.692;6.226;2024-01-07T21:28:23;5.10;98.30
51739;DHT22;37815;52.692;6.226;2024-01-07T21:33:23;5.10;98.30
51739;DHT22;37815;52.692;6.226;2024-01-07T21:38:26;5.10;98.30
51739;DHT22;37815;52.692;6.226;2024-01-07T21:43:27;5.10;98.20
51739;DHT22;37815;52.692;6.226;2024-01-07T21:48:27;5.10;98.10
51739;DHT22;37815;52.692;6.226;2024-01-07T21:53:28;5.10;98.10
51739;DHT22;37815;52.692;6.226;2024-01-07T21:58:29;5.10;98.10
51739;DHT22;37815;52.692;6.226;2024-01-07T22:03:31;5.10;98.10
51739;DHT22;37815;52.692;6.226;2024-01-07T22:08:31;5.00;98.10
51739;DHT22;37815;52.692;6.226;2024-01-07T22:13:32;5.10;98.00
51739;DHT22;37815;52.692;6.226;2024-01-07T22:18:32;5.00;98.00
51739;DHT22;37815;52.692;6.226;2024-01-07T22:23:33;5.00;98.00
51739;DHT22;37815;52.692;6.226;2024-01-07T22:28:34;5.00;97.90
51739;DHT22;37815;52.692;6.226;2024-01-07T22:33:34;5.00;97.90
51739;DHT22;37815;52.692;6.226;2024-01-07T22:38:35;5.00;97.90
51739;DHT22;37815;52.692;6.226;2024-01-07T22:43:36;5.00;97.90
51739;DHT22;37815;52.692;6.226;2024-01-07T22:48:37;5.00;97.90
51739;DHT22;37815;52.692;6.226;2024-01-07T22:53:38;5.00;97.80
51739;DHT22;37815;52.692;6.226;2024-01-07T22:58:38;5.00;97.10
51739;DHT22;37815;52.692;6.226;2024-01-07T23:03:39;6.10;98.00
51739;DHT22;37815;52.692;6.226;2024-01-07T23:08:39;4.90;97.70
51739;DHT22;37815;52.692;6.226;2024-01-07T23:13:40;5.00;97.70
51739;DHT22;37815;52.692;6.226;2024-01-07T23:18:40;4.90;97.70
51739;DHT22;37815;52.692;6.226;2024-01-07T23:23:41;4.90;97.70
51739;DHT22;37815;52.692;6.226;2024-01-07T23:28:42;4.90;97.60
51739;DHT22;37815;52.692;6.226;2024-01-07T23:33:42;4.90;97.60
51739;DHT22;37815;52.692;6.226;2024-01-07T23:38:43;4.90;97.60
51739;DHT22;37815;52.692;6.226;2024-01-07T23:43:43;4.90;97.60
51739;DHT22;37815;52.692;6.226;2024-01-07T23:48:44;4.90;97.50
51739;DHT22;37815;52.692;6.226;2024-01-07T23:53:44;4.80;97.50
51739;DHT22;37815;52.692;6.226;2024-01-07T23:58:45;4.80;97.40
